Time;durP1;ratioP1;P1;durP2;ratioP2;P2;SDS_P1;SDS_P2;PMS_P1;PMS_P2;Temp;Humidity;BMP_temperature;BMP_pressure;BME280_temperature;BME280_humidity;BME280_pressure;Samples;Min_cycle;Max_cycle;Signal;HPM_P1;HPM_P2
2022/10/26 00:00:24;;;;;;;14.70;1.80;;;;;;;14.71;100.00;99360.38;5047581;28;20028;-74
2022/10/26 00:02:50;;;;;;;12.25;2.10;;;;;;;14.67;100.00;99353.91;5035705;28;20032;-74
2022/10/26 00:05:15;;;;;;;7.35;1.88;;;;;;;14.63;100.00;99348.25;5053665;28;20036;-73
2022/10/26 00:07:41;;;;;;;10.02;1.90;;;;;;;14.63;100.00;99352.91;5017706;28;20033;-74
2022/10/26 00:10:09;;;;;;;9.23;1.48;;;;;;;14.61;100.00;99372.50;5038598;28;20040;-73
2022/10/26 00:12:34;;;;;;;6.65;1.23;;;;;;;14.57;100.00;99355.00;5046231;28;20060;-72
2022/10/26 00:14:59;;;;;;;12.20;1.70;;;;;;;14.58;100.00;99351.09;5008133;28;20151;-72
2022/10/26 00:17:25;;;;;;;11.02;2.30;;;;;;;14.52;100.00;99346.06;5025291;28;20025;-71
2022/10/26 00:19:50;;;;;;;7.20;1.70;;;;;;;14.55;100.00;99339.94;5017340;28;20033;-72
2022/10/26 00:22:16;;;;;;;9.88;1.58;;;;;;;14.52;100.00;99335.88;5023030;28;20024;-71
2022/10/26 00:24:41;;;;;;;9.95;1.83;;;;;;;14.52;100.00;99329.56;5023894;28;20133;-72
2022/10/26 00:27:07;;;;;;;9.80;1.77;;;;;;;14.49;100.00;99325.50;5049460;28;20072;-72
2022/10/26 00:29:32;;;;;;;13.52;2.13;;;;;;;14.49;100.00;99329.06;5038260;28;20041;-71
2022/10/26 00:31:57;;;;;;;13.55;2.33;;;;;;;14.54;100.00;99330.84;5037250;28;20021;-72
2022/10/26 00:34:23;;;;;;;7.85;1.67;;;;;;;14.54;100.00;99321.78;5027642;28;20210;-72
2022/10/26 00:36:48;;;;;;;7.53;1.67;;;;;;;14.52;100.00;99324.06;5026044;28;20517;-72
2022/10/26 00:39:14;;;;;;;6.97;1.92;;;;;;;14.55;100.00;99328.94;5028917;28;20053;-74
2022/10/26 00:41:39;;;;;;;8.55;1.90;;;;;;;14.57;100.00;99315.66;5030369;28;20021;-75
2022/10/26 00:44:42;;;;;;;14.13;2.10;;;;;;;14.60;100.00;99320.50;5053014;28;20024;-75
2022/10/26 00:47:32;;;;;;;7.53;2.15;;;;;;;14.61;100.00;99305.63;5039258;28;20024;-73
2022/10/26 00:50:04;;;;;;;12.60;1.58;;;;;;;14.62;100.00;99324.59;5031045;28;20128;-73
2022/10/26 00:52:29;;;;;;;10.30;1.45;;;;;;;14.64;100.00;99316.81;5062653;28;20080;-74
2022/10/26 00:54:55;;;;;;;9.23;2.03;;;;;;;14.69;100.00;99339.81;5057337;28;20124;-74
2022/10/26 00:57:21;;;;;;;7.22;1.33;;;;;;;14.72;100.00;99325.41;5049023;28;20036;-74
2022/10/26 00:59:49;;;;;;;13.57;2.05;;;;;;;14.74;100.00;99326.72;5029616;28;20076;-73
2022/10/26 01:02:15;;;;;;;12.00;1.83;;;;;;;14.74;100.00;99321.22;5059093;28;20029;-74
2022/10/26 01:04:40;;;;;;;13.52;1.85;;;;;;;14.74;100.00;99318.47;5027462;28;20390;-73
2022/10/26 01:07:07;;;;;;;10.75;2.28;;;;;;;14.76;100.00;99313.47;5040539;28;20021;-74
2022/10/26 01:09:33;;;;;;;14.05;1.77;;;;;;;14.80;100.00;99308.94;5073209;28;20029;-74
2022/10/26 01:11:58;;;;;;;7.40;1.63;;;;;;;14.75;100.00;99302.78;5048999;28;20092;-74
2022/10/26 01:14:28;;;;;;;11.32;1.75;;;;;;;14.74;100.00;99314.91;5035693;28;20084;-75
2022/10/26 01:17:27;;;;;;;7.43;1.40;;;;;;;14.75;100.00;99311.03;5050993;28;20025;-74
2022/10/26 01:20:26;;;;;;;7.82;1.73;;;;;;;14.73;100.00;99311.34;5068529;28;20032;-74
2022/10/26 01:23:31;;;;;;;10.65;1.92;;;;;;;14.69;100.00;99310.38;5061355;28;20017;-74
2022/10/26 01:26:21;;;;;;;10.95;2.08;;;;;;;14.63;100.00;99314.38;5038833;28;20033;-74
2022/10/26 01:29:05;;;;;;;8.20;1.85;;;;;;;14.60;100.00;99320.50;5046685;28;20052;-74
2022/10/26 01:31:49;;;;;;;;;;;;;;;14.61;100.00;99313.88;5043302;28;20078;-76
2022/10/26 01:34:34;;;;;;;14.32;2.22;;;;;;;14.63;100.00;99308.88;5065049;28;19916;-75
2022/10/26 01:37:07;;;;;;;5.97;1.58;;;;;;;14.73;100.00;99314.09;5048185;28;20024;-75
2022/10/26 01:39:47;;;;;;;7.00;1.92;;;;;;;14.83;100.00;99316.56;5041318;28;20054;-76
2022/10/26 01:42:15;;;;;;;4.40;1.52;;;;;;;14.89;100.00;99313.63;5052854;28;20013;-76
2022/10/26 01:44:50;;;;;;;10.45;1.50;;;;;;;14.95;100.00;99306.84;5067919;28;20127;-74
2022/10/26 01:47:23;;;;;;;14.23;1.77;;;;;;;14.97;100.00;99308.16;5057750;28;20025;-75
2022/10/26 01:49:52;;;;;;;5.85;1.20;;;;;;;15.01;100.00;99309.13;5017286;28;20026;-76
2022/10/26 01:52:19;;;;;;;7.63;1.73;;;;;;;15.00;100.00;99299.25;5041960;28;20029;-76
2022/10/26 01:54:44;;;;;;;6.47;1.30;;;;;;;15.08;100.00;99308.63;5049159;28;20021;-76
2022/10/26 01:57:13;;;;;;;12.77;2.42;;;;;;;15.12;100.00;99301.34;5056134;28;20081;-75
2022/10/26 02:00:17;;;;;;;4.82;1.63;;;;;;;15.16;100.00;99304.28;5044513;28;20036;-75
2022/10/26 02:03:12;;;;;;;4.60;1.58;;;;;;;15.14;100.00;99312.84;4989104;28;20106;-75
2022/10/26 02:05:56;;;;;;;;;;;;;;;14.97;100.00;99307.34;4985954;28;20030;-74
2022/10/26 02:08:30;;;;;;;10.60;3.00;;;;;;;14.80;100.00;99306.16;5061745;28;19919;-75
2022/10/26 02:11:16;;;;;;;20.30;2.97;;;;;;;14.73;100.00;99318.78;5047743;28;20145;-75
2022/10/26 02:14:12;;;;;;;6.57;1.55;;;;;;;14.66;100.00;99313.78;5058243;28;20109;-75
2022/10/26 02:17:15;;;;;;;12.10;2.28;;;;;;;14.58;100.00;99311.78;5033513;28;20040;-73
2022/10/26 02:19:46;;;;;;;10.75;1.70;;;;;;;14.59;100.00;99318.91;5058396;28;20037;-74
2022/10/26 02:22:24;;;;;;;10.10;2.25;;;;;;;14.63;100.00;99314.38;5038728;28;20028;-74
2022/10/26 02:24:52;;;;;;;14.52;1.98;;;;;;;14.63;100.00;99322.66;5044140;28;20025;-73
2022/10/26 02:27:26;;;;;;;16.33;2.38;;;;;;;14.59;100.00;99313.41;5043447;28;20044;-73
2022/10/26 02:29:54;;;;;;;8.40;1.88;;;;;;;14.57;100.00;99310.16;5046073;28;20045;-74
2022/10/26 02:32:22;;;;;;;6.53;1.63;;;;;;;14.58;100.00;99322.78;5042501;28;20610;-74
2022/10/26 02:34:50;;;;;;;11.45;2.28;;;;;;;14.54;100.00;99310.78;5047838;28;20033;-74
2022/10/26 02:37:32;;;;;;;10.63;1.83;;;;;;;14.51;100.00;99322.44;5066028;28;20028;-73
2022/10/26 02:40:04;;;;;;;5.38;1.83;;;;;;;14.52;100.00;99324.06;5021257;28;20045;-72
2022/10/26 02:45:13;;;;;;;14.38;1.90;;;;;;;14.44;100.00;99329.22;4667507;23;20128;-75
2022/10/26 02:47:38;;;;;;;12.88;2.40;;;;;;;14.39;100.00;99332.09;5018490;28;20026;-75
2022/10/26 02:50:05;;;;;;;5.82;1.98;;;;;;;14.43;100.00;99330.34;5025761;28;20152;-74
2022/10/26 02:52:41;;;;;;;9.85;1.85;;;;;;;14.40;100.00;99339.22;5008361;28;20094;-73
2022/10/26 02:55:24;;;;;;;9.23;1.10;;;;;;;14.33;100.00;99338.88;5026075;28;20021;-75
2022/10/26 02:57:56;;;;;;;5.43;1.27;;;;;;;14.30;100.00;99342.25;5006188;28;20026;-75
2022/10/26 03:00:21;;;;;;;9.45;1.45;;;;;;;14.31;100.00;99341.16;5010834;28;20027;-75
2022/10/26 03:02:55;;;;;;;9.95;1.67;;;;;;;14.28;100.00;99330.75;5004010;28;20034;-75
2022/10/26 03:05:31;;;;;;;10.65;3.00;;;;;;;14.32;100.00;99335.31;5020327;28;20022;-73
2022/10/26 03:07:58;;;;;;;7.07;1.52;;;;;;;14.33;100.00;99347.13;5023565;28;20059;-74
2022/10/26 03:10:23;;;;;;;11.73;1.45;;;;;;;14.35;100.00;99336.59;5004349;28;20029;-73
2022/10/26 03:12:52;;;;;;;8.75;2.05;;;;;;;14.24;100.00;99349.03;5020801;28;20487;-74
2022/10/26 03:15:17;;;;;;;6.88;1.40;;;;;;;14.15;100.00;99329.75;4989597;28;20064;-74
2022/10/26 03:17:43;;;;;;;13.48;1.75;;;;;;;14.14;100.00;99333.63;5025202;28;20026;-74
2022/10/26 03:20:12;;;;;;;11.80;1.33;;;;;;;14.07;100.00;99347.00;5006477;28;20049;-73
2022/10/26 03:22:37;;;;;;;14.35;1.88;;;;;;;13.97;100.00;99334.34;5013765;28;20029;-74
2022/10/26 03:25:03;;;;;;;11.40;1.90;;;;;;;13.85;100.00;99334.13;5004213;28;20129;-75
2022/10/26 03:27:28;;;;;;;8.73;1.92;;;;;;;13.77;100.00;99322.75;5032402;28;20094;-75
2022/10/26 03:29:54;;;;;;;9.23;2.00;;;;;;;13.76;100.00;99329.38;5000324;28;20085;-74
2022/10/26 03:32:19;;;;;;;11.07;1.65;;;;;;;13.68;100.00;99318.34;5013868;28;20080;-75
2022/10/26 03:34:45;;;;;;;9.18;1.25;;;;;;;13.63;100.00;99316.53;5001204;28;20038;-73
2022/10/26 03:37:10;;;;;;;11.15;2.67;;;;;;;13.57;100.00;99334.28;5002882;28;20022;-74
2022/10/26 03:39:36;;;;;;;12.43;1.50;;;;;;;13.52;100.00;99342.63;5015390;28;20060;-74
2022/10/26 03:42:01;;;;;;;8.27;1.63;;;;;;;13.44;100.00;99334.00;5000122;28;20052;-75
2022/10/26 03:44:27;;;;;;;10.43;1.88;;;;;;;13.39;100.00;99347.88;5034123;28;20054;-74
2022/10/26 03:46:52;;;;;;;10.65;1.90;;;;;;;13.35;100.00;99338.63;5040134;28;20120;-74
2022/10/26 03:49:18;;;;;;;11.90;2.08;;;;;;;13.42;100.00;99354.69;5043180;28;20044;-75
2022/10/26 03:51:43;;;;;;;11.75;1.98;;;;;;;13.44;100.00;99358.72;5005409;28;20006;-75
2022/10/26 03:54:08;;;;;;;10.32;1.27;;;;;;;13.39;100.00;99350.63;5040991;28;20030;-74
2022/10/26 03:56:34;;;;;;;16.23;2.05;;;;;;;13.49;100.00;99351.50;5008326;28;20041;-74
2022/10/26 03:58:59;;;;;;;11.80;2.08;;;;;;;13.65;100.00;99358.22;5025068;28;20026;-75
2022/10/26 04:01:25;;;;;;;11.90;1.48;;;;;;;13.77;100.00;99347.50;5005250;28;20030;-74
2022/10/26 04:03:50;;;;;;;14.65;2.15;;;;;;;13.92;100.00;99357.28;5030716;28;20075;-74
2022/10/26 04:06:15;;;;;;;6.72;1.30;;;;;;;14.06;100.00;99359.94;5022650;28;20037;-75
2022/10/26 04:08:41;;;;;;;11.90;1.83;;;;;;;14.13;100.00;99359.47;5026302;28;20038;-73
2022/10/26 04:11:06;;;;;;;13.65;2.00;;;;;;;14.16;100.00;99349.81;5025137;28;20006;-73
2022/10/26 04:13:32;;;;;;;11.00;1.55;;;;;;;14.23;100.00;99359.22;5042417;28;20037;-75
2022/10/26 04:15:58;;;;;;;14.68;1.63;;;;;;;14.23;100.00;99355.66;5026200;28;20034;-73
2022/10/26 04:18:23;;;;;;;15.73;2.58;;;;;;;14.18;100.00;99351.13;5035865;28;20029;-74
2022/10/26 04:20:49;;;;;;;11.10;1.70;;;;;;;14.11;100.00;99359.81;5039607;28;20029;-75
2022/10/26 04:23:16;;;;;;;8.10;1.70;;;;;;;14.08;100.00;99351.38;5040276;28;20040;-73
2022/10/26 04:25:43;;;;;;;15.32;1.95;;;;;;;14.14;100.00;99370.16;5040995;28;20029;-74
2022/10/26 04:28:10;;;;;;;9.50;1.45;;;;;;;14.24;100.00;99373.78;5046263;28;20022;-75
2022/10/26 04:30:36;;;;;;;8.32;1.88;;;;;;;14.29;100.00;99373.63;5045905;28;20031;-75
2022/10/26 04:33:04;;;;;;;10.13;1.88;;;;;;;14.38;100.00;99390.16;5044170;28;20276;-73
2022/10/26 04:35:30;;;;;;;11.02;2.30;;;;;;;14.42;100.00;99386.47;5040791;28;20498;-74
2022/10/26 04:37:57;;;;;;;8.48;1.67;;;;;;;14.39;100.00;99387.09;5037187;28;20021;-72
2022/10/26 04:40:23;;;;;;;18.98;2.45;;;;;;;14.30;100.00;99389.81;5040118;28;20033;-73
2022/10/26 04:42:48;;;;;;;22.60;3.05;;;;;;;14.28;100.00;99397.56;5036010;28;20053;-74
2022/10/26 04:45:15;;;;;;;8.45;1.40;;;;;;;14.30;100.00;99394.50;5034165;28;20133;-73
2022/10/26 04:47:41;;;;;;;10.20;1.75;;;;;;;14.16;100.00;99394.59;5011306;28;20091;-74
2022/10/26 04:50:08;;;;;;;9.25;1.92;;;;;;;14.06;100.00;99395.69;5039600;28;20022;-74
2022/10/26 04:52:34;;;;;;;14.63;1.85;;;;;;;13.98;100.00;99381.88;5023364;28;20128;-74
2022/10/26 04:55:00;;;;;;;13.38;1.48;;;;;;;13.93;100.00;99396.56;4996957;28;20026;-73
2022/10/26 04:57:25;;;;;;;16.23;1.95;;;;;;;13.95;100.00;99394.31;5021675;28;20041;-71
2022/10/26 04:59:51;;;;;;;16.85;1.80;;;;;;;13.95;100.00;99403.38;5020528;28;20072;-76
2022/10/26 05:02:16;;;;;;;8.43;1.77;;;;;;;13.95;100.00;99417.09;5022206;28;20030;-76
2022/10/26 05:04:41;;;;;;;14.73;2.00;;;;;;;13.90;100.00;99399.94;5007370;28;20451;-77
2022/10/26 05:07:07;;;;;;;18.27;1.73;;;;;;;13.85;100.00;99419.31;4991397;28;20018;-77
2022/10/26 05:09:32;;;;;;;7.47;1.73;;;;;;;13.76;100.00;99409.06;5022115;28;20017;-77
2022/10/26 05:11:58;;;;;;;21.63;3.42;;;;;;;13.71;100.00;99400.94;5002278;28;20040;-76
2022/10/26 05:14:23;;;;;;;9.27;1.65;;;;;;;13.69;100.00;99408.69;5020445;28;20034;-77
2022/10/26 05:16:50;;;;;;;15.40;1.75;;;;;;;13.68;100.00;99406.25;5004136;28;20178;-75
2022/10/26 05:19:15;;;;;;;16.95;1.83;;;;;;;13.66;100.00;99414.00;5020823;28;20030;-75
2022/10/26 05:21:41;;;;;;;14.43;1.77;;;;;;;13.68;100.00;99409.00;5018783;28;20054;-71
2022/10/26 05:24:06;;;;;;;16.08;2.47;;;;;;;13.69;100.00;99407.88;5019910;28;20038;-71
2022/10/26 05:26:32;;;;;;;16.10;2.10;;;;;;;13.68;100.00;99407.06;5000851;28;20034;-72
2022/10/26 05:28:57;;;;;;;10.38;1.70;;;;;;;13.74;100.00;99405.81;5018563;28;20048;-72
2022/10/26 05:31:23;;;;;;;10.27;2.17;;;;;;;13.75;100.00;99401.94;5003779;28;20093;-72
2022/10/26 05:33:50;;;;;;;9.05;1.40;;;;;;;13.77;100.00;99405.19;4986531;28;20127;-70
2022/10/26 05:36:17;;;;;;;7.82;1.67;;;;;;;13.82;100.00;99411.69;4998883;28;20026;-71
2022/10/26 05:38:42;;;;;;;6.40;1.30;;;;;;;13.83;100.00;99407.81;5016876;28;20496;-71
2022/10/26 05:41:08;;;;;;;7.47;1.40;;;;;;;13.85;100.00;99419.31;5000971;28;20044;-71
2022/10/26 05:43:33;;;;;;;10.35;2.13;;;;;;;13.86;100.00;99412.69;5010281;28;20049;-70
2022/10/26 05:45:58;;;;;;;20.50;1.95;;;;;;;13.85;100.00;99400.88;4995135;28;20034;-71
2022/10/26 05:48:24;;;;;;;12.32;1.65;;;;;;;13.87;100.00;99397.81;4996384;28;20099;-72
2022/10/26 05:50:49;;;;;;;9.50;1.48;;;;;;;14.00;100.00;99413.41;5004157;28;20026;-71
2022/10/26 05:53:15;;;;;;;10.05;1.58;;;;;;;14.04;100.00;99408.91;5006548;28;20026;-72
2022/10/26 05:55:41;;;;;;;16.17;2.00;;;;;;;14.07;100.00;99408.28;5026343;28;20022;-72
2022/10/26 05:58:14;;;;;;;12.82;1.65;;;;;;;14.15;100.00;99412.22;5027348;28;20057;-72
2022/10/26 06:01:00;;;;;;;8.45;1.40;;;;;;;14.21;100.00;99412.91;4993127;28;20022;-70
2022/10/26 06:03:39;;;;;;;14.07;1.73;;;;;;;14.25;100.00;99403.72;5028966;28;20026;-71
2022/10/26 06:06:06;;;;;;;7.18;1.60;;;;;;;14.27;100.00;99406.16;5017072;28;20026;-69
2022/10/26 06:08:48;;;;;;;7.18;1.50;;;;;;;14.31;100.00;99402.44;5015054;28;20083;-71
2022/10/26 06:11:14;;;;;;;12.45;1.38;;;;;;;14.17;100.00;99367.94;5015606;28;20460;-73
2022/10/26 06:13:40;;;;;;;9.95;1.33;;;;;;;14.30;100.00;99387.06;5013048;28;20026;-72
2022/10/26 06:16:36;;;;;;;6.28;1.17;;;;;;;14.40;100.00;99402.47;5008530;28;20034;-73
2022/10/26 06:19:05;;;;;;;10.20;1.58;;;;;;;14.45;100.00;99401.53;5017923;28;20907;-70
2022/10/26 06:21:48;;;;;;;6.63;1.40;;;;;;;14.49;100.00;99397.81;5009544;28;20488;-72
2022/10/26 06:24:49;;;;;;;5.80;1.40;;;;;;;14.46;100.00;99406.72;5018151;28;20080;-73
2022/10/26 06:27:26;;;;;;;20.83;2.03;;;;;;;14.37;100.00;99416.88;5017570;28;20022;-70
2022/10/26 06:30:03;;;;;;;10.02;1.83;;;;;;;14.28;100.00;99418.75;5007114;28;20037;-71
2022/10/26 06:32:29;;;;;;;13.35;2.20;;;;;;;14.13;100.00;99418.03;5013962;28;20129;-70
2022/10/26 06:35:30;;;;;;;8.13;1.67;;;;;;;14.11;100.00;99431.28;5001362;28;20569;-73
2022/10/26 06:38:00;;;;;;;13.02;2.05;;;;;;;14.07;100.00;99424.78;5018041;28;20049;-71
2022/10/26 06:40:26;;;;;;;20.02;1.73;;;;;;;14.03;100.00;99432.06;5012135;28;20029;-73
2022/10/26 06:42:52;;;;;;;14.40;1.77;;;;;;;13.97;100.00;99430.53;5012179;28;20076;-73
2022/10/26 06:45:20;;;;;;;8.00;1.63;;;;;;;13.98;100.00;99431.38;5033720;28;20046;-77
2022/10/26 06:48:01;;;;;;;14.23;2.25;;;;;;;13.89;100.00;99412.06;5004389;28;20029;-73
2022/10/26 06:50:33;;;;;;;12.50;2.45;;;;;;;13.97;100.00;99433.28;5023851;28;20026;-72
2022/10/26 06:53:16;;;;;;;11.23;1.80;;;;;;;14.05;100.00;99442.72;5026387;28;20033;-74
2022/10/26 06:56:01;;;;;;;18.08;2.25;;;;;;;14.07;100.00;99452.25;5034712;28;20029;-74
2022/10/26 06:58:28;;;;;;;;;;;;;;;14.07;100.00;99441.28;5024657;28;20483;-72
2022/10/26 07:00:55;;;;;;;13.93;1.25;;;;;;;14.10;100.00;99454.38;5030637;28;20087;-71
2022/10/26 07:03:20;;;;;;;15.40;2.42;;;;;;;14.14;100.00;99452.63;5033672;28;20022;-72
2022/10/26 07:05:46;;;;;;;21.35;2.20;;;;;;;14.14;100.00;99457.34;5040072;28;20025;-72
2022/10/26 07:08:11;;;;;;;9.77;1.73;;;;;;;14.12;100.00;99460.41;5024115;28;20097;-72
2022/10/26 07:10:38;;;;;;;17.95;3.10;;;;;;;14.14;100.00;99474.63;5020946;28;20833;-72
2022/10/26 07:13:08;;;;;;;20.73;2.15;;;;;;;14.18;100.00;99474.00;5043050;28;20029;-71
2022/10/26 07:15:34;;;;;;;15.68;3.30;;;;;;;14.19;100.00;99476.44;5033894;28;20193;-72
2022/10/26 07:18:02;;;;;;;10.98;1.38;;;;;;;14.17;100.00;99477.91;5033791;28;20120;-74
2022/10/26 07:20:27;;;;;;;16.80;2.55;;;;;;;14.14;100.00;99485.63;5035449;28;20030;-72
2022/10/26 07:22:54;;;;;;;11.98;2.10;;;;;;;14.16;100.00;99490.00;5054286;28;20022;-72
2022/10/26 07:25:20;;;;;;;18.25;2.72;;;;;;;14.20;100.00;99504.75;5034047;28;20030;-73
2022/10/26 07:27:45;;;;;;;13.63;2.15;;;;;;;14.18;100.00;99515.25;5040532;28;20026;-73
2022/10/26 07:30:11;;;;;;;19.80;2.25;;;;;;;14.16;100.00;99520.25;5025112;28;20088;-73
2022/10/26 07:32:37;;;;;;;13.93;2.25;;;;;;;14.10;100.00;99523.13;5040666;28;20010;-74
2022/10/26 07:35:03;;;;;;;15.85;3.03;;;;;;;14.05;100.00;99508.72;5024186;28;20387;-73
2022/10/26 07:37:31;;;;;;;22.55;3.50;;;;;;;13.97;100.00;99513.00;5011477;28;20056;-74
2022/10/26 07:39:57;;;;;;;18.02;2.30;;;;;;;13.90;100.00;99496.94;5035672;28;20057;-73
2022/10/26 07:42:22;;;;;;;17.95;2.45;;;;;;;14.05;100.00;99534.25;5036503;28;20967;-73
2022/10/26 07:44:48;;;;;;;10.98;2.30;;;;;;;13.90;100.00;99504.34;5050460;28;20056;-74
2022/10/26 07:47:13;;;;;;;10.88;1.85;;;;;;;13.89;100.00;99508.25;5036792;28;20029;-73
2022/10/26 07:49:39;;;;;;;7.45;1.10;;;;;;;13.90;100.00;99507.09;5007705;28;20052;-74
2022/10/26 07:52:05;;;;;;;8.88;1.02;;;;;;;13.75;100.00;99517.31;5041272;28;20368;-74
2022/10/26 07:54:32;;;;;;;7.78;0.77;;;;;;;13.67;100.00;99523.56;5023219;28;20483;-72
2022/10/26 07:56:58;;;;;;;2.88;0.75;;;;;;;13.71;100.00;99545.72;5044620;28;20029;-73
2022/10/26 07:59:24;;;;;;;3.83;0.70;;;;;;;13.75;100.00;99560.47;5048468;28;20060;-73
2022/10/26 08:01:50;;;;;;;5.30;1.27;;;;;;;13.82;100.00;99549.09;5043218;28;20071;-73
2022/10/26 08:04:15;;;;;;;5.88;1.23;;;;;;;13.81;100.00;99563.94;5053435;28;20116;-74
2022/10/26 08:06:41;;;;;;;2.95;1.00;;;;;;;13.71;100.00;99548.47;5051759;28;20482;-72
2022/10/26 08:09:06;;;;;;;2.47;0.70;;;;;;;13.75;100.00;99594.25;5040418;28;20028;-74
2022/10/26 08:11:31;;;;;;;5.40;0.88;;;;;;;13.75;100.00;99572.28;5008412;28;20120;-73
2022/10/26 08:13:57;;;;;;;7.28;1.02;;;;;;;13.78;100.00;99574.44;5042179;28;20079;-73
2022/10/26 08:16:23;;;;;;;6.50;1.25;;;;;;;13.88;100.00;99586.31;5040723;28;20044;-74
2022/10/26 08:18:50;;;;;;;8.40;1.63;;;;;;;13.91;100.00;99578.25;5023631;28;20029;-74
2022/10/26 08:21:16;;;;;;;6.70;1.15;;;;;;;14.05;100.00;99591.97;5035862;28;20096;-74
2022/10/26 08:23:41;;;;;;;5.65;1.25;;;;;;;14.00;100.00;99600.31;5051513;28;20186;-73
2022/10/26 08:26:10;;;;;;;3.28;0.93;;;;;;;13.99;100.00;99598.72;5031898;28;20192;-73
2022/10/26 08:28:36;;;;;;;7.47;1.17;;;;;;;14.04;100.00;99612.31;5030620;28;20037;-72
2022/10/26 08:31:02;;;;;;;11.20;1.67;;;;;;;14.17;100.00;99609.88;5034690;28;20418;-73
2022/10/26 08:33:28;;;;;;;8.07;1.50;;;;;;;14.22;100.00;99601.50;5037675;28;20026;-74
2022/10/26 08:35:56;;;;;;;5.82;1.15;;;;;;;14.31;100.00;99602.38;5020231;28;20109;-74
2022/10/26 08:38:21;;;;;;;10.82;1.38;;;;;;;14.31;100.00;99611.44;5038015;28;20024;-73
2022/10/26 08:40:47;;;;;;;12.27;2.10;;;;;;;14.29;100.00;99612.88;5012564;28;20025;-73
2022/10/26 08:43:21;;;;;;;14.77;2.17;;;;;;;14.35;100.00;99610.81;5024306;28;20048;-73
2022/10/26 08:45:53;;;;;;;9.18;1.58;;;;;;;14.48;100.00;99621.78;5037264;28;20092;-73
2022/10/26 08:48:25;;;;;;;9.02;1.73;;;;;;;14.50;100.00;99615.97;5050704;28;20039;-74
2022/10/26 08:50:55;;;;;;;10.18;2.25;;;;;;;14.54;100.00;99627.16;5055241;28;20433;-74
2022/10/26 08:53:32;;;;;;;11.38;2.20;;;;;;;14.69;100.00;99628.75;5039122;28;20593;-74
2022/10/26 08:56:14;;;;;;;20.00;1.92;;;;;;;14.86;100.00;99628.06;5053496;28;20029;-73
2022/10/26 08:58:57;;;;;;;9.93;2.05;;;;;;;14.88;100.00;99634.03;5042291;28;20033;-74
2022/10/26 09:01:23;;;;;;;7.85;1.58;;;;;;;14.92;100.00;99640.56;5053447;28;20044;-73
2022/10/26 09:03:48;;;;;;;12.13;1.85;;;;;;;14.98;100.00;99644.78;5057458;28;20017;-76
2022/10/26 09:06:25;;;;;;;22.20;2.90;;;;;;;15.08;100.00;99639.03;5026145;28;20029;-73
2022/10/26 09:08:54;;;;;;;11.73;2.00;;;;;;;15.25;100.00;99676.06;5059998;28;20035;-73
2022/10/26 09:11:39;;;;;;;15.27;2.00;;;;;;;16.09;100.00;99649.50;5057146;28;20036;-74
2022/10/26 09:14:28;;;;;;;12.57;1.80;;;;;;;18.22;100.00;99651.06;5054825;28;20018;-73
2022/10/26 09:16:53;;;;;;;12.63;1.80;;;;;;;20.72;82.51;99672.16;5029304;28;20037;-73
2022/10/26 09:19:34;;;;;;;18.83;2.53;;;;;;;21.34;74.68;99675.44;5041751;28;20108;-74
2022/10/26 09:22:29;;;;;;;17.02;2.65;;;;;;;22.27;78.69;99667.78;5034014;28;20029;-74
2022/10/26 09:24:58;;;;;;;8.07;1.55;;;;;;;23.53;67.96;99685.06;5036678;28;20049;-74
2022/10/26 09:27:29;;;;;;;13.85;2.35;;;;;;;22.80;67.91;99679.28;5032099;28;20030;-75
2022/10/26 09:30:13;;;;;;;23.52;3.50;;;;;;;21.94;69.39;99705.19;5032005;28;20384;-73
2022/10/26 09:32:45;;;;;;;17.43;2.50;;;;;;;21.22;74.26;99712.47;5041176;28;20052;-74
2022/10/26 09:35:49;;;;;;;16.13;2.65;;;;;;;20.72;75.45;99709.09;5057767;28;20319;-72
2022/10/26 09:38:36;;;;;;;15.30;3.15;;;;;;;21.51;74.20;99709.69;5043506;28;20097;-73
2022/10/26 09:41:11;;;;;;;20.92;3.95;;;;;;;21.74;67.43;99702.34;5044735;28;20026;-73
2022/10/26 09:43:56;;;;;;;18.05;2.95;;;;;;;23.20;73.61;99713.53;5027697;28;20045;-72
2022/10/26 09:46:32;;;;;;;17.23;2.95;;;;;;;26.33;62.37;99707.63;5018004;28;20017;-73
2022/10/26 09:49:03;;;;;;;19.67;2.90;;;;;;;25.67;58.33;99711.09;5024442;28;20093;-74
2022/10/26 09:51:28;;;;;;;21.48;3.90;;;;;;;25.83;59.66;99739.66;5017539;28;20026;-74
2022/10/26 09:53:59;;;;;;;22.52;4.72;;;;;;;25.13;56.33;99725.34;5013490;28;20041;-73
2022/10/26 09:56:26;;;;;;;23.08;2.78;;;;;;;25.81;57.36;99730.81;5027256;28;20061;-73
2022/10/26 09:58:58;;;;;;;19.45;3.15;;;;;;;26.86;50.77;99774.44;5017415;28;20117;-74
2022/10/26 10:01:31;;;;;;;26.10;3.75;;;;;;;27.18;50.12;99746.50;5016709;28;20030;-74
2022/10/26 10:04:12;;;;;;;14.05;2.83;;;;;;;27.52;51.32;99742.63;5019194;28;20029;-74
2022/10/26 10:06:42;;;;;;;15.05;3.13;;;;;;;27.48;48.05;99753.84;5032600;28;20025;-74
2022/10/26 10:09:12;;;;;;;21.20;3.22;;;;;;;27.39;49.61;99741.38;5030972;28;20409;-74
2022/10/26 10:11:54;;;;;;;13.90;2.50;;;;;;;29.30;55.02;99758.06;5017720;28;20280;-73
2022/10/26 10:14:28;;;;;;;14.20;3.25;;;;;;;30.46;50.81;99765.28;5021705;28;20030;-72
2022/10/26 10:17:02;;;;;;;12.20;2.13;;;;;;;29.47;45.93;99781.69;5020940;28;20026;-73
2022/10/26 10:19:35;;;;;;;13.55;2.67;;;;;;;28.20;47.07;99789.66;5010219;28;20029;-73
2022/10/26 10:22:14;;;;;;;16.05;2.97;;;;;;;27.67;51.68;99780.75;5020412;28;20029;-74
2022/10/26 10:24:51;;;;;;;22.65;3.53;;;;;;;27.21;45.45;99805.88;5012305;28;20034;-74
2022/10/26 10:27:17;;;;;;;14.55;3.05;;;;;;;26.43;46.54;99807.78;5021338;28;20068;-73
2022/10/26 10:29:50;;;;;;;14.18;2.70;;;;;;;24.16;53.18;99825.34;5022780;28;20025;-73
2022/10/26 10:32:23;;;;;;;27.98;4.38;;;;;;;25.22;53.67;99829.34;5017787;28;20177;-74
2022/10/26 10:34:50;;;;;;;24.33;4.22;;;;;;;27.20;46.13;99791.00;5021799;28;20036;-73
2022/10/26 10:37:28;;;;;;;21.55;3.78;;;;;;;27.12;48.28;99806.22;5000796;28;20121;-72
2022/10/26 10:40:29;;;;;;;17.42;3.13;;;;;;;25.05;57.02;99796.34;5022254;28;20025;-73
2022/10/26 10:43:04;;;;;;;19.83;4.30;;;;;;;26.97;48.75;99834.22;4993071;28;20027;-73
2022/10/26 10:45:30;;;;;;;15.90;2.90;;;;;;;28.28;41.41;99850.28;5009601;28;20489;-73
2022/10/26 10:48:10;;;;;;;15.88;3.75;;;;;;;29.00;44.54;99824.91;5017431;28;20038;-73
2022/10/26 10:50:38;;;;;;;18.27;3.67;;;;;;;29.19;40.97;99848.97;5014643;28;20036;-73
2022/10/26 10:53:25;;;;;;;14.55;2.65;;;;;;;29.43;41.98;99846.47;5012376;28;20465;-73
2022/10/26 10:56:09;;;;;;;23.38;3.25;;;;;;;29.22;47.69;99836.13;5018620;28;20140;-72
2022/10/26 10:59:04;;;;;;;17.92;3.97;;;;;;;29.98;45.87;99852.63;5018418;28;20076;-73
2022/10/26 11:01:37;;;;;;;15.77;3.20;;;;;;;29.67;37.75;99858.84;5012089;28;20034;-73
2022/10/26 11:04:24;;;;;;;19.42;3.53;;;;;;;29.55;51.23;99848.03;5023031;28;20040;-73
2022/10/26 11:06:51;;;;;;;14.45;3.00;;;;;;;30.45;43.42;99865.19;5012709;28;20073;-74
2022/10/26 11:09:21;;;;;;;23.23;3.42;;;;;;;31.56;39.81;99889.88;5015623;28;20040;-74
2022/10/26 11:11:52;;;;;;;13.35;2.90;;;;;;;31.82;39.71;99880.66;5008390;28;20018;-72
2022/10/26 11:14:30;;;;;;;17.95;3.42;;;;;;;31.28;41.20;99886.97;5008630;28;20121;-72
2022/10/26 11:17:06;;;;;;;14.65;2.90;;;;;;;30.89;41.41;99873.28;5014188;28;20022;-72
2022/10/26 11:19:41;;;;;;;29.20;3.80;;;;;;;29.53;37.19;99889.91;5026745;28;20014;-72
2022/10/26 11:22:13;;;;;;;25.30;3.78;;;;;;;25.66;44.94;99874.69;5023214;28;20022;-73
2022/10/26 11:24:49;;;;;;;14.70;2.88;;;;;;;23.61;49.10;99902.84;5009896;28;20025;-73
2022/10/26 11:27:24;;;;;;;23.13;3.13;;;;;;;22.44;53.67;99890.25;5019986;28;20030;-73
2022/10/26 11:30:05;;;;;;;16.65;2.70;;;;;;;21.17;55.34;99878.72;5014395;28;20061;-72
2022/10/26 11:33:00;;;;;;;23.20;3.90;;;;;;;19.97;58.85;99903.75;5014007;28;20026;-72
2022/10/26 11:35:31;;;;;;;19.20;3.28;;;;;;;19.86;61.00;99897.84;5008812;28;20034;-73
2022/10/26 11:38:18;;;;;;;16.40;3.28;;;;;;;20.73;58.14;99910.75;5009488;28;20026;-74
2022/10/26 11:40:45;;;;;;;22.63;3.85;;;;;;;23.02;55.52;99909.13;5014478;28;20022;-73
2022/10/26 11:43:17;;;;;;;17.13;3.00;;;;;;;24.49;49.79;99916.09;5022904;28;20026;-72